Time;durP1;ratioP1;P1;durP2;ratioP2;P2;SDS_P1;SDS_P2;PMS_P1;PMS_P2;Temp;Humidity;BMP_temperature;BMP_pressure;BME280_temperature;BME280_humidity;BME280_pressure;Samples;Min_cycle;Max_cycle;Signal;HPM_P1;HPM_P2
2024/04/04 00:01:00;;;;;;;15.68;6.40;;;;;;;;;;4316815;32;316619;-80
2024/04/04 00:03:29;;;;;;;10.30;6.10;;;;;;;;;;4347438;32;317817;-81
2024/04/04 00:05:56;;;;;;;12.70;6.05;;;;;;;;;;4319052;32;318300;-80
2024/04/04 00:08:25;;;;;;;12.77;5.90;;;;;;;;;;4344031;32;316891;-79
2024/04/04 00:10:56;;;;;;;14.93;5.65;;;;;;;;;;4317202;32;316941;-79
2024/04/04 00:13:24;;;;;;;12.30;5.90;;;;;;;;;;4336789;32;317810;-80
2024/04/04 00:15:52;;;;;;;13.10;7.15;;;;;;;;;;4333597;32;318531;-82
2024/04/04 00:18:19;;;;;;;10.20;5.87;;;;;;;;;;4328399;32;317881;-81
2024/04/04 00:20:49;;;;;;;19.62;9.30;;;;;;;;;;4338083;32;316726;-79
2024/04/04 00:23:17;;;;;;;15.60;7.90;;;;;;;;;;4326200;32;418667;-81
2024/04/04 00:25:42;;;;;;;16.62;6.62;;;;;;;;;;4347974;32;316632;-81
2024/04/04 00:28:10;;;;;;;10.63;6.22;;;;;;;;;;4314916;32;318034;-79
2024/04/04 00:30:36;;;;;;;18.55;5.90;;;;;;;;;;4342721;32;357041;-79
2024/04/04 00:33:04;;;;;;;17.63;6.20;;;;;;;;;;4327062;32;318543;-81
2024/04/04 00:35:31;;;;;;;12.00;6.22;;;;;;;;;;4347548;32;318251;-81
2024/04/04 00:37:59;;;;;;;13.70;7.78;;;;;;;;;;4329871;32;317734;-82
2024/04/04 00:40:29;;;;;;;10.67;5.63;;;;;;;;;;4347989;32;317852;-80
2024/04/04 00:43:03;;;;;;;16.02;7.30;;;;;;;;;;4335792;32;318337;-80
2024/04/04 00:45:30;;;;;;;9.45;5.82;;;;;;;;;;4348225;32;317440;-79
2024/04/04 00:48:23;;;;;;;7.97;4.32;;;;;;;;;;4329197;32;317409;-81
2024/04/04 00:50:54;;;;;;;7.85;3.42;;;;;;;;;;4305429;33;336218;-81
2024/04/04 00:53:28;;;;;;;7.15;3.12;;;;;;;;;;4312605;33;330506;-80
2024/04/04 00:55:55;;;;;;;6.60;2.83;;;;;;;;;;4298962;33;316569;-81
2024/04/04 00:58:29;;;;;;;5.00;2.72;;;;;;;;;;4316593;32;317280;-80
2024/04/04 01:00:56;;;;;;;4.68;2.95;;;;;;;;;;4329298;32;317118;-80
2024/04/04 01:03:29;;;;;;;6.25;3.12;;;;;;;;;;4337022;32;316598;-81
2024/04/04 01:05:55;;;;;;;8.65;3.08;;;;;;;;;;4341031;32;317288;-81
2024/04/04 01:08:32;;;;;;;5.30;3.10;;;;;;;;;;4338465;32;316814;-81
2024/04/04 01:10:59;;;;;;;6.18;2.95;;;;;;;;;;4318567;32;317481;-81
2024/04/04 01:13:26;;;;;;;12.68;3.22;;;;;;;;;;4339915;32;316987;-81
2024/04/04 01:15:54;;;;;;;7.32;3.62;;;;;;;;;;4311647;32;318357;-81
2024/04/04 01:18:22;;;;;;;6.62;3.20;;;;;;;;;;4338802;32;317221;-80
2024/04/04 01:20:49;;;;;;;11.45;3.28;;;;;;;;;;4341186;32;317540;-81
2024/04/04 01:23:19;;;;;;;9.25;2.92;;;;;;;;;;4327516;32;317694;-81
2024/04/04 01:25:46;;;;;;;5.50;2.95;;;;;;;;;;4337081;32;317281;-81
2024/04/04 01:28:14;;;;;;;5.37;3.12;;;;;;;;;;4349769;32;317384;-80
2024/04/04 01:30:43;;;;;;;16.15;4.03;;;;;;;;;;4341479;32;316798;-80
2024/04/04 01:33:13;;;;;;;10.38;4.35;;;;;;;;;;4332400;32;318491;-80
2024/04/04 01:35:39;;;;;;;8.27;4.07;;;;;;;;;;4348934;32;337160;-80
2024/04/04 01:38:10;;;;;;;16.80;10.70;;;;;;;;;;4339647;32;334468;-80
2024/04/04 01:40:36;;;;;;;15.98;8.18;;;;;;;;;;4321895;32;318790;-80
2024/04/04 01:43:06;;;;;;;11.70;4.70;;;;;;;;;;4332019;32;318334;-80
2024/04/04 01:45:33;;;;;;;7.95;3.90;;;;;;;;;;4349549;32;318191;-80
2024/04/04 01:48:04;;;;;;;8.82;3.45;;;;;;;;;;4320584;32;317211;-80
2024/04/04 01:50:32;;;;;;;8.60;4.12;;;;;;;;;;4349490;32;317315;-80
2024/04/04 01:53:02;;;;;;;9.20;3.90;;;;;;;;;;4333869;32;317997;-80
2024/04/04 01:55:29;;;;;;;7.55;4.15;;;;;;;;;;4350685;32;317312;-80
2024/04/04 01:57:57;;;;;;;11.23;4.43;;;;;;;;;;4332839;32;316817;-80
2024/04/04 02:00:38;;;;;;;9.88;3.95;;;;;;;;;;4341613;32;317817;-81
2024/04/04 02:03:05;;;;;;;7.90;4.00;;;;;;;;;;4317297;32;332864;-81
2024/04/04 02:05:33;;;;;;;7.80;3.50;;;;;;;;;;4339378;32;316772;-80
2024/04/04 02:08:10;;;;;;;4.77;3.00;;;;;;;;;;4333203;32;317289;-80
2024/04/04 02:10:36;;;;;;;7.03;3.37;;;;;;;;;;4326720;32;316671;-80
2024/04/04 02:13:06;;;;;;;11.43;3.70;;;;;;;;;;4323670;32;318860;-80
2024/04/04 02:15:39;;;;;;;10.80;3.40;;;;;;;;;;4333049;32;317018;-80
2024/04/04 02:18:07;;;;;;;7.65;4.10;;;;;;;;;;4319716;32;316743;-79
2024/04/04 02:20:33;;;;;;;8.83;4.50;;;;;;;;;;4333114;32;316683;-79
2024/04/04 02:23:01;;;;;;;10.37;4.70;;;;;;;;;;4329714;32;316999;-82
2024/04/04 02:25:29;;;;;;;10.47;5.03;;;;;;;;;;4341966;32;317713;-81
2024/04/04 02:27:59;;;;;;;15.03;6.80;;;;;;;;;;4328708;32;318137;-81
2024/04/04 02:30:25;;;;;;;18.47;6.77;;;;;;;;;;4337387;32;318539;-81
2024/04/04 02:32:55;;;;;;;15.75;4.93;;;;;;;;;;4310295;32;316773;-81
2024/04/04 02:35:23;;;;;;;7.65;4.15;;;;;;;;;;4336796;32;317549;-81
2024/04/04 02:37:55;;;;;;;5.80;3.03;;;;;;;;;;4327592;32;317051;-81
2024/04/04 02:40:20;;;;;;;7.40;4.27;;;;;;;;;;4351658;32;315698;-81
2024/04/04 02:42:52;;;;;;;11.47;4.50;;;;;;;;;;4328091;32;316543;-81
2024/04/04 02:45:20;;;;;;;9.57;3.93;;;;;;;;;;4346933;32;317829;-81
2024/04/04 02:47:49;;;;;;;6.27;3.57;;;;;;;;;;4330203;32;366044;-81
2024/04/04 02:50:18;;;;;;;5.33;3.10;;;;;;;;;;4350848;32;317686;-80
2024/04/04 02:52:48;;;;;;;4.85;3.30;;;;;;;;;;4324954;32;316850;-81
2024/04/04 02:55:14;;;;;;;12.37;6.47;;;;;;;;;;4333347;32;416083;-82
2024/04/04 02:57:43;;;;;;;26.08;11.27;;;;;;;;;;4332037;32;318119;-81
2024/04/04 03:00:11;;;;;;;24.83;9.83;;;;;;;;;;4331267;32;319376;-80
2024/04/04 03:02:43;;;;;;;23.37;9.37;;;;;;;;;;4333284;32;317735;-82
2024/04/04 03:05:10;;;;;;;18.07;7.03;;;;;;;;;;4327595;32;318248;-81
2024/04/04 03:07:41;;;;;;;22.42;9.55;;;;;;;;;;4350995;32;318384;-81
2024/04/04 03:10:08;;;;;;;16.37;8.60;;;;;;;;;;4324277;32;317365;-81
2024/04/04 03:12:35;;;;;;;8.97;5.03;;;;;;;;;;4331863;32;318395;-80
2024/04/04 03:15:04;;;;;;;7.37;4.47;;;;;;;;;;4318887;32;315621;-79
2024/04/04 03:17:33;;;;;;;7.50;4.07;;;;;;;;;;4340932;32;315721;-79
2024/04/04 03:19:59;;;;;;;8.43;4.00;;;;;;;;;;4317732;32;324905;-81
2024/04/04 03:22:26;;;;;;;6.65;3.78;;;;;;;;;;4358069;32;355919;-81
2024/04/04 03:25:12;;;;;;;7.40;4.63;;;;;;;;;;4351881;32;315993;-80
2024/04/04 03:27:42;;;;;;;6.93;4.33;;;;;;;;;;4331783;32;315771;-80
2024/04/04 03:30:10;;;;;;;10.27;5.20;;;;;;;;;;4335572;32;316324;-81
2024/04/04 03:32:38;;;;;;;15.47;6.40;;;;;;;;;;4347223;32;317801;-81
2024/04/04 03:35:06;;;;;;;13.47;7.63;;;;;;;;;;4333914;32;336071;-80
2024/04/04 03:37:33;;;;;;;58.27;27.20;;;;;;;;;;4351949;32;317544;-80
2024/04/04 03:40:03;;;;;;;83.33;35.27;;;;;;;;;;4332161;32;358147;-81
2024/04/04 03:42:34;;;;;;;69.77;31.10;;;;;;;;;;4338975;32;317853;-81
2024/04/04 03:45:04;;;;;;;25.37;13.17;;;;;;;;;;4326747;32;330354;-81
2024/04/04 03:47:36;;;;;;;18.67;8.40;;;;;;;;;;4349829;32;318804;-81
2024/04/04 03:50:04;;;;;;;14.93;7.63;;;;;;;;;;4326004;32;317314;-81
2024/04/04 03:52:34;;;;;;;12.73;6.80;;;;;;;;;;4345924;32;316450;-82
2024/04/04 03:55:01;;;;;;;12.77;7.00;;;;;;;;;;4326600;32;318286;-81
2024/04/04 03:57:30;;;;;;;18.77;8.97;;;;;;;;;;4331607;32;317476;-81
2024/04/04 04:00:03;;;;;;;24.93;9.80;;;;;;;;;;4333121;32;317577;-80
2024/04/04 04:02:31;;;;;;;15.93;7.90;;;;;;;;;;4340963;32;316614;-81
2024/04/04 04:05:00;;;;;;;14.83;6.40;;;;;;;;;;4312827;32;318122;-80
2024/04/04 04:07:28;;;;;;;7.83;4.53;;;;;;;;;;4351308;32;318200;-81
2024/04/04 04:09:57;;;;;;;12.63;4.90;;;;;;;;;;4318966;32;315827;-82
2024/04/04 04:12:23;;;;;;;15.50;8.80;;;;;;;;;;4331114;32;317426;-81
2024/04/04 04:15:03;;;;;;;21.17;9.37;;;;;;;;;;4315620;32;317619;-82
2024/04/04 04:17:30;;;;;;;17.57;9.03;;;;;;;;;;4325218;32;317670;-81
2024/04/04 04:21:16;;;;;;;16.83;9.10;;;;;;;;;;4333290;32;317596;-80
2024/04/04 04:22:48;;;;;;;19.60;9.40;;;;;;;;;;4321321;32;317802;-80
2024/04/04 04:25:18;;;;;;;29.27;11.27;;;;;;;;;;4327950;32;316582;-82
2024/04/04 04:27:46;;;;;;;28.03;12.60;;;;;;;;;;4346968;32;318839;-79
2024/04/04 04:30:15;;;;;;;31.50;17.00;;;;;;;;;;4338085;32;418642;-80
2024/04/04 04:32:41;;;;;;;25.50;14.47;;;;;;;;;;4352028;32;318838;-82
2024/04/04 04:35:10;;;;;;;30.80;14.73;;;;;;;;;;4338961;32;317754;-80
2024/04/04 04:37:35;;;;;;;37.67;16.17;;;;;;;;;;4354471;32;318812;-81
2024/04/04 04:40:05;;;;;;;37.40;14.57;;;;;;;;;;4328804;32;318691;-81
2024/04/04 04:42:33;;;;;;;29.17;14.07;;;;;;;;;;4335293;32;317585;-81
2024/04/04 04:45:00;;;;;;;28.93;14.83;;;;;;;;;;4311825;32;318763;-80
2024/04/04 04:47:29;;;;;;;33.73;14.20;;;;;;;;;;4341183;32;319308;-81
2024/04/04 04:49:58;;;;;;;25.77;11.27;;;;;;;;;;4316676;32;317732;-81
2024/04/04 04:52:25;;;;;;;28.37;12.63;;;;;;;;;;4331166;32;317584;-80
2024/04/04 04:57:34;;;;;;;36.10;16.80;;;;;;;;;;4347904;32;318764;-81
2024/04/04 05:00:02;;;;;;;45.47;21.60;;;;;;;;;;4334878;32;319016;-79
2024/04/04 05:02:37;;;;;;;33.63;14.43;;;;;;;;;;4341918;32;321009;-80
2024/04/04 05:05:15;;;;;;;22.93;10.03;;;;;;;;;;4321757;32;318755;-80
2024/04/04 05:07:57;;;;;;;14.73;8.80;;;;;;;;;;4338710;32;318782;-81
2024/04/04 05:10:23;;;;;;;24.70;8.97;;;;;;;;;;4298447;32;417590;-81
2024/04/04 05:12:54;;;;;;;18.77;7.87;;;;;;;;;;4326038;32;316594;-81
2024/04/04 05:15:21;;;;;;;12.83;6.97;;;;;;;;;;4325553;32;317686;-81
2024/04/04 05:17:57;;;;;;;15.27;5.93;;;;;;;;;;4316695;32;317634;-81
2024/04/04 05:20:24;;;;;;;21.47;6.90;;;;;;;;;;4337639;32;317788;-80
2024/04/04 05:22:55;;;;;;;12.83;6.30;;;;;;;;;;4321732;32;318298;-79
2024/04/04 05:25:22;;;;;;;14.87;6.23;;;;;;;;;;4330404;32;316587;-80
2024/04/04 05:28:03;;;;;;;15.70;6.33;;;;;;;;;;4330957;32;318033;-80
2024/04/04 05:30:32;;;;;;;15.00;5.57;;;;;;;;;;4331037;32;316483;-81
2024/04/04 05:33:19;;;;;;;15.33;6.43;;;;;;;;;;4320397;32;318146;-82
2024/04/04 05:35:47;;;;;;;15.43;6.40;;;;;;;;;;4338458;32;317698;-81
2024/04/04 05:38:15;;;;;;;16.93;7.30;;;;;;;;;;4322305;32;417496;-81
2024/04/04 05:40:42;;;;;;;16.47;7.03;;;;;;;;;;4328266;32;317911;-81
2024/04/04 05:43:11;;;;;;;17.53;7.60;;;;;;;;;;4319540;32;317861;-79
2024/04/04 05:45:38;;;;;;;23.17;7.63;;;;;;;;;;4337926;32;317784;-80
2024/04/04 05:48:06;;;;;;;16.20;8.07;;;;;;;;;;4317709;32;317995;-80
2024/04/04 05:50:35;;;;;;;19.70;9.53;;;;;;;;;;4329794;32;318280;-80
2024/04/04 05:53:04;;;;;;;21.37;9.63;;;;;;;;;;4320215;32;316658;-80
2024/04/04 05:55:31;;;;;;;37.67;12.17;;;;;;;;;;4341433;32;316325;-80
2024/04/04 05:58:02;;;;;;;20.70;11.07;;;;;;;;;;4328448;32;319465;-79
2024/04/04 06:00:29;;;;;;;37.97;11.33;;;;;;;;;;4337353;32;317738;-79
2024/04/04 06:02:58;;;;;;;22.90;10.87;;;;;;;;;;4325884;32;319134;-79
2024/04/04 06:05:27;;;;;;;24.03;10.17;;;;;;;;;;4336838;32;319130;-78
2024/04/04 06:07:56;;;;;;;21.63;8.87;;;;;;;;;;4324110;32;319167;-78
2024/04/04 06:10:24;;;;;;;29.40;11.93;;;;;;;;;;4328273;32;316825;-82
2024/04/04 06:12:53;;;;;;;31.80;11.07;;;;;;;;;;4312143;32;318801;-80
2024/04/04 06:15:25;;;;;;;19.30;9.63;;;;;;;;;;4326448;32;318906;-82
2024/04/04 06:17:51;;;;;;;23.52;10.88;;;;;;;;;;4345250;32;317266;-81
2024/04/04 06:20:17;;;;;;;20.60;10.37;;;;;;;;;;4351006;32;316409;-80
2024/04/04 06:22:44;;;;;;;23.47;10.93;;;;;;;;;;4352313;32;316339;-80
2024/04/04 06:25:15;;;;;;;19.67;9.90;;;;;;;;;;4340546;32;418616;-77
2024/04/04 06:27:41;;;;;;;25.83;9.47;;;;;;;;;;4351717;32;317758;-78
2024/04/04 06:30:09;;;;;;;24.80;11.33;;;;;;;;;;4340599;32;318212;-78
2024/04/04 06:32:36;;;;;;;25.57;12.47;;;;;;;;;;4348387;32;338978;-78
2024/04/04 06:35:03;;;;;;;25.80;9.43;;;;;;;;;;4334910;32;319277;-79
2024/04/04 06:37:29;;;;;;;17.00;8.95;;;;;;;;;;4351477;32;318229;-78
2024/04/04 06:39:56;;;;;;;26.52;9.77;;;;;;;;;;4338953;32;318140;-78
2024/04/04 06:42:26;;;;;;;20.25;8.60;;;;;;;;;;4343681;32;317696;-79
2024/04/04 06:44:53;;;;;;;19.03;9.43;;;;;;;;;;4330710;32;318036;-80
2024/04/04 06:47:20;;;;;;;19.20;8.05;;;;;;;;;;4342986;32;317417;-79
2024/04/04 06:49:53;;;;;;;19.67;9.75;;;;;;;;;;4330844;32;317684;-79
2024/04/04 06:52:19;;;;;;;21.87;10.70;;;;;;;;;;4325572;32;317796;-79
2024/04/04 06:54:50;;;;;;;26.27;12.90;;;;;;;;;;4330277;32;318816;-79
2024/04/04 06:57:17;;;;;;;32.78;13.02;;;;;;;;;;4325800;32;318976;-79
2024/04/04 06:59:47;;;;;;;28.63;14.27;;;;;;;;;;4342510;32;317597;-80
2024/04/04 07:02:13;;;;;;;20.77;13.07;;;;;;;;;;4336490;32;419951;-79
2024/04/04 07:04:40;;;;;;;30.98;13.05;;;;;;;;;;4340593;32;318629;-79
2024/04/04 07:07:09;;;;;;;20.58;10.40;;;;;;;;;;4291952;32;319119;-79
2024/04/04 07:09:41;;;;;;;25.60;10.52;;;;;;;;;;4330316;32;318876;-79
2024/04/04 07:12:07;;;;;;;14.90;8.35;;;;;;;;;;4317912;32;319337;-79
2024/04/04 07:14:35;;;;;;;23.23;8.27;;;;;;;;;;4319063;32;316626;-79
2024/04/04 07:17:03;;;;;;;16.20;7.47;;;;;;;;;;4315568;32;317730;-79
2024/04/04 07:19:44;;;;;;;17.87;7.40;;;;;;;;;;4343232;32;317488;-80
2024/04/04 07:22:13;;;;;;;21.60;7.95;;;;;;;;;;4335304;32;419175;-79
2024/04/04 07:24:41;;;;;;;15.93;6.17;;;;;;;;;;4347526;32;317799;-78
2024/04/04 07:27:07;;;;;;;23.67;7.78;;;;;;;;;;4308604;32;318173;-78
2024/04/04 07:29:37;;;;;;;14.23;6.57;;;;;;;;;;4336150;32;317901;-80
2024/04/04 07:32:07;;;;;;;46.67;7.23;;;;;;;;;;4321567;32;345967;-78
2024/04/04 07:34:35;;;;;;;30.52;6.22;;;;;;;;;;4343848;32;318379;-80
2024/04/04 07:37:01;;;;;;;14.10;7.40;;;;;;;;;;4332332;32;318239;-79
2024/04/04 07:39:29;;;;;;;8.85;5.57;;;;;;;;;;4345866;32;318411;-80
2024/04/04 07:41:55;;;;;;;13.85;6.28;;;;;;;;;;4338800;32;317125;-80
2024/04/04 07:44:22;;;;;;;19.60;6.75;;;;;;;;;;4335219;32;318561;-79
2024/04/04 07:46:49;;;;;;;13.93;5.47;;;;;;;;;;4349406;32;318250;-80
2024/04/04 07:49:18;;;;;;;23.75;8.05;;;;;;;;;;4337197;32;318401;-80
2024/04/04 07:51:44;;;;;;;17.33;7.45;;;;;;;;;;4355326;32;318595;-79
2024/04/04 07:54:11;;;;;;;16.98;8.32;;;;;;;;;;4346563;32;318481;-80
2024/04/04 07:56:37;;;;;;;14.25;8.02;;;;;;;;;;4340484;32;324103;-80
2024/04/04 07:59:04;;;;;;;36.40;9.95;;;;;;;;;;4337712;32;329854;-80
2024/04/04 08:01:29;;;;;;;22.02;8.00;;;;;;;;;;4348398;32;318776;-80
2024/04/04 08:03:56;;;;;;;23.85;8.38;;;;;;;;;;4348584;32;318250;-80
2024/04/04 08:06:24;;;;;;;14.87;6.82;;;;;;;;;;4330329;32;417840;-81
2024/04/04 08:08:50;;;;;;;28.80;7.93;;;;;;;;;;4348884;32;318461;-80
2024/04/04 08:11:16;;;;;;;14.52;7.72;;;;;;;;;;4336429;32;356474;-80
2024/04/04 08:13:44;;;;;;;27.40;12.00;;;;;;;;;;4339074;32;318277;-81
2024/04/04 08:16:10;;;;;;;34.90;13.00;;;;;;;;;;4333490;32;319544;-79
2024/04/04 08:18:37;;;;;;;24.33;11.05;;;;;;;;;;4347472;32;319139;-79
2024/04/04 08:21:03;;;;;;;18.27;8.00;;;;;;;;;;4337485;32;329565;-79
2024/04/04 08:23:31;;;;;;;32.53;7.93;;;;;;;;;;4347336;32;318286;-79
2024/04/04 08:25:58;;;;;;;17.80;8.35;;;;;;;;;;4337648;32;318310;-79
2024/04/04 08:28:25;;;;;;;21.23;8.35;;;;;;;;;;4341832;32;318208;-79
2024/04/04 08:30:56;;;;;;;12.57;7.22;;;;;;;;;;4347672;32;318259;-79
2024/04/04 08:33:23;;;;;;;8.77;5.25;;;;;;;;;;4323624;32;417813;-79
2024/04/04 08:35:48;;;;;;;14.10;5.72;;;;;;;;;;4334261;32;316622;-79
2024/04/04 08:38:15;;;;;;;16.60;6.90;;;;;;;;;;4318932;32;318368;-79
2024/04/04 08:40:42;;;;;;;16.52;6.95;;;;;;;;;;4338365;32;332941;-78
2024/04/04 08:43:09;;;;;;;13.90;5.35;;;;;;;;;;4338675;32;318358;-78
2024/04/04 08:45:45;;;;;;;6.80;4.00;;;;;;;;;;4354878;32;318108;-77
2024/04/04 08:48:15;;;;;;;11.60;4.82;;;;;;;;;;4334025;33;317056;-77
2024/04/04 08:50:45;;;;;;;9.50;5.20;;;;;;;;;;4347104;33;318028;-77
2024/04/04 08:53:13;;;;;;;8.32;3.70;;;;;;;;;;4329812;33;319730;-77
2024/04/04 08:55:39;;;;;;;10.40;3.80;;;;;;;;;;4333216;33;317139;-79
2024/04/04 08:58:09;;;;;;;7.78;3.53;;;;;;;;;;4323287;33;318140;-78
2024/04/04 09:00:34;;;;;;;8.13;4.18;;;;;;;;;;4330902;33;317245;-78
2024/04/04 09:03:01;;;;;;;10.18;4.78;;;;;;;;;;4323334;33;317155;-78
2024/04/04 09:05:27;;;;;;;16.50;4.18;;;;;;;;;;4331758;33;318212;-78
2024/04/04 09:07:54;;;;;;;5.57;3.65;;;;;;;;;;4331714;33;318215;-78
2024/04/04 09:10:20;;;;;;;7.32;3.50;;;;;;;;;;4314992;33;317709;-78
2024/04/04 09:12:47;;;;;;;6.65;4.22;;;;;;;;;;4331689;33;331920;-78
2024/04/04 09:15:14;;;;;;;8.48;3.53;;;;;;;;;;4322548;32;317412;-78
2024/04/04 09:17:41;;;;;;;9.80;3.47;;;;;;;;;;4346917;32;317462;-78
2024/04/04 09:20:10;;;;;;;14.73;4.28;;;;;;;;;;4337081;32;317270;-79
2024/04/04 09:22:39;;;;;;;12.02;3.67;;;;;;;;;;4348401;32;318073;-79
2024/04/04 09:25:05;;;;;;;11.30;3.92;;;;;;;;;;4338856;32;318452;-77
2024/04/04 09:27:31;;;;;;;12.13;3.20;;;;;;;;;;4339774;32;318160;-78
2024/04/04 09:29:58;;;;;;;9.15;4.47;;;;;;;;;;4338843;32;318754;-78
2024/04/04 09:32:27;;;;;;;8.98;3.55;;;;;;;;;;4343361;32;317015;-78
2024/04/04 09:34:53;;;;;;;8.80;3.85;;;;;;;;;;4348992;32;317311;-78
2024/04/04 09:37:21;;;;;;;7.55;3.65;;;;;;;;;;4340310;32;316963;-78
2024/04/04 09:39:47;;;;;;;8.32;4.12;;;;;;;;;;4348735;32;317197;-78
2024/04/04 09:42:15;;;;;;;10.93;4.55;;;;;;;;;;4332222;32;317308;-78
2024/04/04 09:44:41;;;;;;;11.50;5.15;;;;;;;;;;4348238;32;318785;-78
2024/04/04 09:47:08;;;;;;;9.43;4.60;;;;;;;;;;4337799;32;345771;-79
2024/04/04 09:49:36;;;;;;;11.93;4.22;;;;;;;;;;4346397;32;350932;-78
2024/04/04 09:52:03;;;;;;;8.25;4.47;;;;;;;;;;4338775;32;318465;-78
2024/04/04 09:54:30;;;;;;;6.95;4.05;;;;;;;;;;4343228;32;317101;-79
2024/04/04 09:56:58;;;;;;;7.97;4.45;;;;;;;;;;4349125;32;317402;-79
2024/04/04 09:59:25;;;;;;;14.93;5.00;;;;;;;;;;4336715;32;416585;-79
2024/04/04 10:01:52;;;;;;;15.02;7.70;;;;;;;;;;4349182;32;318408;-79
2024/04/04 10:04:19;;;;;;;16.98;7.82;;;;;;;;;;4333262;32;319084;-79
2024/04/04 10:06:48;;;;;;;14.30;7.47;;;;;;;;;;4347463;32;318285;-79
2024/04/04 10:09:15;;;;;;;17.40;8.30;;;;;;;;;;4338037;32;353966;-79
2024/04/04 10:11:42;;;;;;;19.50;10.63;;;;;;;;;;4350630;32;317645;-78
2024/04/04 10:14:13;;;;;;;22.37;8.18;;;;;;;;;;4336828;32;318952;-78
2024/04/04 10:16:39;;;;;;;14.15;7.18;;;;;;;;;;4347506;32;318325;-78
2024/04/04 10:19:12;;;;;;;13.85;7.15;;;;;;;;;;4338648;32;317747;-79
2024/04/04 10:21:39;;;;;;;9.90;6.53;;;;;;;;;;4349110;32;318281;-78
2024/04/04 10:24:07;;;;;;;11.15;7.10;;;;;;;;;;4339830;32;317102;-79
2024/04/04 10:26:34;;;;;;;12.10;6.72;;;;;;;;;;4337790;32;331257;-79
2024/04/04 10:29:00;;;;;;;10.98;6.10;;;;;;;;;;4323894;32;338275;-79
2024/04/04 10:31:27;;;;;;;12.25;6.05;;;;;;;;;;4334431;32;318138;-78
2024/04/04 10:34:03;;;;;;;14.63;6.37;;;;;;;;;;4337714;32;318508;-78
2024/04/04 10:36:40;;;;;;;9.60;6.22;;;;;;;;;;4317327;32;417847;-78
2024/04/04 10:39:09;;;;;;;11.85;4.47;;;;;;;;;;4337790;32;317187;-78
2024/04/04 10:41:37;;;;;;;10.48;3.85;;;;;;;;;;4348595;32;318140;-78
2024/04/04 10:44:08;;;;;;;11.50;5.15;;;;;;;;;;4337632;32;318313;-79
2024/04/04 10:46:43;;;;;;;7.43;4.47;;;;;;;;;;4345411;32;317955;-80
2024/04/04 10:49:10;;;;;;;9.52;4.43;;;;;;;;;;4338514;32;317048;-79
2024/04/04 10:51:38;;;;;;;11.20;4.07;;;;;;;;;;4340297;32;316425;-79
2024/04/04 10:54:05;;;;;;;7.78;4.12;;;;;;;;;;4339185;32;318127;-78
2024/04/04 10:56:32;;;;;;;8.15;4.35;;;;;;;;;;4342372;32;317189;-79
2024/04/04 10:58:59;;;;;;;7.55;3.60;;;;;;;;;;4338291;32;317789;-80
2024/04/04 11:01:27;;;;;;;7.10;3.65;;;;;;;;;;4348317;32;316676;-78
2024/04/04 11:03:55;;;;;;;11.65;4.53;;;;;;;;;;4347612;32;317296;-79
2024/04/04 11:06:21;;;;;;;5.97;3.87;;;;;;;;;;4331969;32;318283;-79
2024/04/04 11:08:49;;;;;;;13.85;8.05;;;;;;;;;;4346930;32;317591;-79
2024/04/04 11:11:16;;;;;;;11.02;3.42;;;;;;;;;;4338840;32;318112;-78
2024/04/04 11:13:45;;;;;;;6.12;3.83;;;;;;;;;;4347510;32;318575;-79
2024/04/04 11:16:11;;;;;;;8.52;3.12;;;;;;;;;;4330611;32;316928;-80
2024/04/04 11:18:39;;;;;;;4.72;2.62;;;;;;;;;;4346799;32;317306;-80
2024/04/04 11:21:07;;;;;;;25.12;3.12;;;;;;;;;;4338069;32;317213;-78
2024/04/04 11:23:34;;;;;;;10.68;2.35;;;;;;;;;;4347969;32;318150;-78
2024/04/04 11:25:59;;;;;;;13.48;2.50;;;;;;;;;;4334645;32;318286;-77
2024/04/04 11:28:26;;;;;;;8.98;2.92;;;;;;;;;;4327202;32;318249;-79
2024/04/04 11:30:54;;;;;;;10.57;3.10;;;;;;;;;;4332179;32;353620;-78
2024/04/04 11:33:21;;;;;;;4.90;2.45;;;;;;;;;;4322638;32;318874;-77
2024/04/04 11:35:47;;;;;;;7.05;2.42;;;;;;;;;;4332939;32;317102;-78
2024/04/04 11:38:13;;;;;;;6.70;2.62;;;;;;;;;;4315649;32;317078;-79
2024/04/04 11:40:40;;;;;;;4.85;2.00;;;;;;;;;;4335284;32;336123;-79
2024/04/04 11:43:06;;;;;;;4.68;1.83;;;;;;;;;;4338771;32;317077;-79
2024/04/04 11:45:32;;;;;;;5.50;1.60;;;;;;;;;;4347552;32;317341;-77
2024/04/04 11:48:00;;;;;;;11.02;2.45;;;;;;;;;;4334670;32;348801;-78
2024/04/04 11:50:26;;;;;;;8.50;2.40;;;;;;;;;;4342249;32;318443;-79
2024/04/04 11:52:53;;;;;;;4.68;2.33;;;;;;;;;;4347575;32;331571;-79
2024/04/04 11:55:19;;;;;;;6.55;2.72;;;;;;;;;;4336957;32;317325;-78
2024/04/04 11:57:45;;;;;;;5.28;3.00;;;;;;;;;;4347795;32;317026;-80
2024/04/04 12:00:11;;;;;;;16.17;8.00;;;;;;;;;;4332614;32;317202;-79
2024/04/04 12:02:39;;;;;;;8.25;3.97;;;;;;;;;;4347490;32;318409;-79
2024/04/04 12:05:06;;;;;;;6.10;3.47;;;;;;;;;;4338452;32;317164;-79
2024/04/04 12:07:33;;;;;;;13.10;4.03;;;;;;;;;;4348622;32;317181;-79
2024/04/04 12:10:00;;;;;;;6.28;3.60;;;;;;;;;;4338800;32;318393;-79
2024/04/04 12:12:25;;;;;;;4.68;3.62;;;;;;;;;;4341338;32;317263;-79
2024/04/04 12:14:52;;;;;;;6.93;3.25;;;;;;;;;;4342917;32;317449;-79
2024/04/04 12:17:19;;;;;;;10.85;3.40;;;;;;;;;;4339698;32;317277;-79
2024/04/04 12:19:46;;;;;;;7.22;2.97;;;;;;;;;;4348630;32;318309;-79
2024/04/04 12:22:13;;;;;;;4.80;3.00;;;;;;;;;;4332666;32;317001;-79
2024/04/04 12:24:40;;;;;;;5.07;3.50;;;;;;;;;;4348715;32;317045;-79
2024/04/04 12:27:06;;;;;;;9.18;4.07;;;;;;;;;;4333662;32;317295;-79
2024/04/04 12:29:32;;;;;;;6.62;3.80;;;;;;;;;;4336486;32;316569;-79
2024/04/04 12:31:58;;;;;;;8.65;5.35;;;;;;;;;;4320721;33;317114;-79
2024/04/04 12:34:25;;;;;;;11.20;4.95;;;;;;;;;;4326788;33;336638;-79
2024/04/04 12:36:51;;;;;;;7.37;5.03;;;;;;;;;;4345256;32;318234;-79
2024/04/04 12:39:19;;;;;;;6.62;3.75;;;;;;;;;;4332763;32;317174;-79
2024/04/04 12:41:45;;;;;;;8.38;3.78;;;;;;;;;;4348385;32;317272;-79
2024/04/04 12:44:12;;;;;;;6.85;4.25;;;;;;;;;;4331098;32;317080;-79
2024/04/04 12:46:39;;;;;;;12.18;4.62;;;;;;;;;;4348389;32;318072;-79
2024/04/04 12:49:07;;;;;;;9.80;5.22;;;;;;;;;;4338434;32;318133;-79
2024/04/04 12:51:32;;;;;;;9.40;5.70;;;;;;;;;;4347567;32;317203;-79
2024/04/04 12:54:01;;;;;;;13.57;5.00;;;;;;;;;;4338678;32;317391;-80
2024/04/04 12:56:28;;;;;;;11.25;5.72;;;;;;;;;;4340246;32;318127;-79
2024/04/04 12:58:54;;;;;;;16.95;5.05;;;;;;;;;;4351058;32;318098;-79
2024/04/04 13:01:20;;;;;;;8.63;5.10;;;;;;;;;;4337221;32;318345;-78
2024/04/04 13:03:48;;;;;;;9.85;4.70;;;;;;;;;;4349151;32;316953;-78
2024/04/04 13:06:13;;;;;;;8.70;4.57;;;;;;;;;;4333234;32;317322;-78
2024/04/04 13:08:40;;;;;;;11.00;4.62;;;;;;;;;;4349588;32;317094;-78
2024/04/04 13:11:08;;;;;;;11.90;5.00;;;;;;;;;;4338521;32;318210;-78
2024/04/04 13:13:36;;;;;;;10.90;5.80;;;;;;;;;;4335845;32;317569;-78
2024/04/04 13:16:03;;;;;;;11.98;6.32;;;;;;;;;;4325839;32;318127;-78
2024/04/04 13:18:29;;;;;;;11.20;5.37;;;;;;;;;;4328274;32;318401;-78
2024/04/04 13:20:57;;;;;;;9.00;5.47;;;;;;;;;;4334850;32;317923;-78
2024/04/04 13:23:24;;;;;;;13.73;6.22;;;;;;;;;;4323825;32;417956;-78
2024/04/04 13:25:49;;;;;;;11.45;5.85;;;;;;;;;;4337689;32;318292;-78
2024/04/04 13:28:16;;;;;;;7.78;4.68;;;;;;;;;;4331737;32;318081;-78
2024/04/04 13:30:43;;;;;;;15.50;4.57;;;;;;;;;;4351027;32;317303;-79
2024/04/04 13:33:10;;;;;;;5.90;3.30;;;;;;;;;;4340627;32;318642;-79
2024/04/04 13:35:35;;;;;;;9.23;4.25;;;;;;;;;;4347020;32;316398;-79
2024/04/04 13:38:02;;;;;;;10.98;4.40;;;;;;;;;;4339280;32;317384;-79
2024/04/04 13:40:28;;;;;;;9.98;4.90;;;;;;;;;;4344346;32;318147;-79
2024/04/04 13:42:54;;;;;;;6.22;3.58;;;;;;;;;;4349262;32;318127;-79
2024/04/04 13:45:21;;;;;;;6.00;3.42;;;;;;;;;;4339864;32;341108;-79
2024/04/04 13:47:49;;;;;;;6.03;3.40;;;;;;;;;;4350219;32;317444;-78
2024/04/04 13:50:16;;;;;;;10.73;3.28;;;;;;;;;;4334344;32;317125;-78
2024/04/04 13:52:43;;;;;;;11.35;3.30;;;;;;;;;;4347838;32;340475;-79
2024/04/04 13:55:10;;;;;;;7.12;3.85;;;;;;;;;;4339627;32;318259;-79
2024/04/04 13:57:37;;;;;;;12.00;2.85;;;;;;;;;;4348595;32;317225;-79
2024/04/04 14:00:04;;;;;;;3.72;1.62;;;;;;;;;;4338750;32;318364;-79
2024/04/04 14:02:31;;;;;;;3.05;1.95;;;;;;;;;;4343369;32;316498;-79
2024/04/04 14:04:58;;;;;;;3.55;1.90;;;;;;;;;;4340273;32;317154;-79
2024/04/04 14:07:25;;;;;;;5.32;2.40;;;;;;;;;;4349125;32;316975;-80
2024/04/04 14:09:50;;;;;;;4.32;1.90;;;;;;;;;;4348283;32;316573;-78
2024/04/04 14:12:17;;;;;;;4.75;1.67;;;;;;;;;;4332127;32;317032;-79
2024/04/04 14:14:43;;;;;;;2.80;1.50;;;;;;;;;;4349261;32;342213;-79
2024/04/04 14:17:10;;;;;;;2.60;1.10;;;;;;;;;;4338889;32;317555;-78
2024/04/04 14:19:36;;;;;;;3.78;1.08;;;;;;;;;;4349653;32;317514;-79
2024/04/04 14:22:04;;;;;;;5.68;1.35;;;;;;;;;;4339570;32;316497;-79
2024/04/04 14:24:31;;;;;;;6.05;1.50;;;;;;;;;;4342438;32;317129;-79
2024/04/04 14:26:58;;;;;;;2.67;1.02;;;;;;;;;;4342367;32;317107;-82
2024/04/04 14:29:24;;;;;;;2.47;1.50;;;;;;;;;;4343048;32;317119;-80